Time;durP1;ratioP1;P1;durP2;ratioP2;P2;SDS_P1;SDS_P2;PMS_P1;PMS_P2;Temp;Humidity;BMP_temperature;BMP_pressure;BME280_temperature;BME280_humidity;BME280_pressure;Samples;Min_cycle;Max_cycle;Signal;HPM_P1;HPM_P2
2023/05/19 00:02:20;;;;;;;;;;;;;;;10.75;52.87;98591.75;5095839;28;19966;-54
2023/05/19 00:04:49;;;;;;;;;;;;;;;10.77;52.78;98594.19;5096608;28;19946;-55
2023/05/19 00:07:17;;;;;;;;;;;;;;;10.74;52.76;98593.66;5083647;28;19982;-55
2023/05/19 00:09:45;;;;;;;;;;;;;;;10.76;52.83;98587.94;5079151;28;20015;-53
2023/05/19 00:12:13;;;;;;;;;;;;;;;10.75;52.99;98591.75;5082422;28;19956;-53
2023/05/19 00:14:46;;;;;;;;;;;;;;;10.72;53.13;98592.34;5090552;28;19958;-53
2023/05/19 00:17:15;;;;;;;;;;;;;;;10.77;52.78;98596.91;5082102;28;19947;-53
2023/05/19 00:19:43;;;;;;;;;;;;;;;10.76;52.72;98587.94;5091326;28;19920;-57
2023/05/19 00:22:11;;;;;;;;;;;;;;;10.68;52.91;98588.59;5080847;28;19920;-53
2023/05/19 00:24:39;;;;;;;;;;;;;;;10.55;53.06;98587.44;5090995;28;19920;-54
2023/05/19 00:27:07;;;;;;;;;;;;;;;10.61;53.43;98580.03;5101174;28;20082;-53
2023/05/19 00:29:35;;;;;;;;;;;;;;;10.57;53.12;98581.72;5082234;28;19924;-53
2023/05/19 00:32:04;;;;;;;;;;;;;;;10.58;53.35;98577.88;5087528;28;19927;-53
2023/05/19 00:34:34;;;;;;;;;;;;;;;10.55;53.22;98581.19;5099075;28;19974;-53
2023/05/19 00:37:02;;;;;;;;;;;;;;;10.53;53.53;98583.38;5082211;28;19974;-58
2023/05/19 00:39:30;;;;;;;;;;;;;;;10.58;53.24;98572.44;5082800;28;20335;-59
2023/05/19 00:41:58;;;;;;;;;;;;;;;10.59;53.20;98574.06;5091491;28;19959;-53
2023/05/19 00:44:28;;;;;;;;;;;;;;;10.58;53.42;98573.25;5094633;28;20424;-58
2023/05/19 00:46:56;;;;;;;;;;;;;;;10.62;53.22;98573.47;5088670;28;19920;-55
2023/05/19 00:49:26;;;;;;;;;;;;;;;10.60;53.41;98572.94;5103214;28;20015;-54
2023/05/19 00:51:53;;;;;;;;;;;;;;;10.58;53.26;98564.28;5082762;28;19920;-53
2023/05/19 00:54:21;;;;;;;;;;;;;;;10.54;53.44;98566.78;5095310;28;19986;-53
2023/05/19 00:56:51;;;;;;;;;;;;;;;10.58;53.19;98562.38;5112048;28;19931;-54
2023/05/19 00:59:19;;;;;;;;;;;;;;;10.56;53.40;98561.88;5111770;28;19920;-53
2023/05/19 01:01:48;;;;;;;;;;;;;;;10.61;53.21;98558.28;5097416;28;19920;-52
2023/05/19 01:04:16;;;;;;;;;;;;;;;10.63;53.21;98564.22;5114814;27;19921;-53
2023/05/19 01:06:46;;;;;;;;;;;;;;;10.60;53.01;98559.34;5127811;27;20385;-55
2023/05/19 01:09:14;;;;;;;;;;;;;;;10.58;53.00;98553.44;5113697;28;19920;-53
2023/05/19 01:11:41;;;;;;;;;;;;;;;10.52;53.26;98549.19;5113862;28;19955;-54
2023/05/19 01:14:09;;;;;;;;;;;;;;;10.49;53.40;98548.69;5093638;28;19928;-54
2023/05/19 01:16:39;;;;;;;;;;;;;;;10.39;53.36;98550.75;5122638;27;19924;-54
2023/05/19 01:19:11;;;;;;;;;;;;;;;10.40;53.48;98542.28;5090847;28;19954;-60
2023/05/19 01:21:44;;;;;;;;;;;;;;;10.52;53.10;98543.75;5119607;27;19920;-53
2023/05/19 01:24:23;;;;;;;;;;;;;;;10.52;53.10;98541.03;5096638;28;19920;-55
2023/05/19 01:26:59;;;;;;;;;;;;;;;10.51;53.21;98533.97;5093412;28;19956;-54
2023/05/19 01:29:35;;;;;;;;;;;;;;;10.49;53.43;98528.81;5106333;28;20303;-53
2023/05/19 01:32:05;;;;;;;;;;;;;;;10.46;53.59;98532.97;5118944;27;20407;-54
2023/05/19 01:34:35;;;;;;;;;;;;;;;10.44;53.56;98537.09;5091376;28;19920;-53
2023/05/19 01:37:03;;;;;;;;;;;;;;;10.40;53.90;98533.34;5087866;28;19928;-55
2023/05/19 01:39:31;;;;;;;;;;;;;;;10.40;53.97;98531.41;5096781;28;19979;-52
2023/05/19 01:42:02;;;;;;;;;;;;;;;10.38;53.90;98536.31;5111585;28;19927;-53
2023/05/19 01:44:29;;;;;;;;;;;;;;;10.32;53.71;98532.06;5096690;28;19920;-53
2023/05/19 01:46:58;;;;;;;;;;;;;;;10.27;54.19;98532.16;5095948;28;20400;-53
2023/05/19 01:49:27;;;;;;;;;;;;;;;10.22;54.15;98524.03;5092619;28;19920;-52
2023/05/19 01:51:54;;;;;;;;;;;;;;;10.27;54.41;98532.16;5098746;28;20027;-53
2023/05/19 01:54:22;;;;;;;;;;;;;;;10.30;54.07;98530.78;5105440;28;20014;-53
2023/05/19 01:56:55;;;;;;;;;;;;;;;10.35;54.21;98533.41;5093068;28;19955;-53
2023/05/19 01:59:25;;;;;;;;;;;;;;;10.34;54.31;98527.16;5108647;28;19920;-53
2023/05/19 02:01:55;;;;;;;;;;;;;;;10.32;54.21;98526.63;5094872;28;19924;-53
2023/05/19 02:04:25;;;;;;;;;;;;;;;10.38;53.83;98538.22;5091959;28;20477;-52
2023/05/19 02:06:55;;;;;;;;;;;;;;;10.34;53.54;98538.03;5099050;28;20011;-53
2023/05/19 02:09:23;;;;;;;;;;;;;;;10.33;53.71;98541.84;5087421;28;19962;-53
2023/05/19 02:11:52;;;;;;;;;;;;;;;10.28;53.67;98547.38;5079618;28;19924;-54
2023/05/19 02:14:20;;;;;;;;;;;;;;;10.25;53.50;98545.22;5106384;28;20400;-55
2023/05/19 02:16:48;;;;;;;;;;;;;;;10.26;53.48;98546.03;5087270;28;20270;-54
2023/05/19 02:19:20;;;;;;;;;;;;;;;10.17;53.58;98549.38;5086082;28;19920;-54
2023/05/19 02:21:48;;;;;;;;;;;;;;;10.19;53.58;98551.81;5091657;28;19924;-55
2023/05/19 02:24:18;;;;;;;;;;;;;;;10.12;53.99;98545.91;5095613;28;20417;-54
2023/05/19 02:26:47;;;;;;;;;;;;;;;10.16;53.96;98546.94;5106139;28;19956;-53
2023/05/19 02:29:15;;;;;;;;;;;;;;;10.23;53.64;98540.09;5079944;28;19944;-55
2023/05/19 02:31:43;;;;;;;;;;;;;;;10.21;53.85;98544.16;5093466;28;19973;-52
2023/05/19 02:34:13;;;;;;;;;;;;;;;10.23;53.58;98536.53;5080690;28;19927;-53
2023/05/19 02:36:41;;;;;;;;;;;;;;;10.21;53.79;98536.00;5085914;28;19946;-54
2023/05/19 02:39:09;;;;;;;;;;;;;;;10.15;53.94;98532.56;5087876;28;19926;-54
2023/05/19 02:41:38;;;;;;;;;;;;;;;10.15;53.73;98531.75;5089239;28;19973;-57
2023/05/19 02:44:06;;;;;;;;;;;;;;;10.11;54.25;98520.66;5086412;28;19920;-53
2023/05/19 02:46:35;;;;;;;;;;;;;;;10.19;54.09;98519.22;5100600;28;19926;-54
2023/05/19 02:49:03;;;;;;;;;;;;;;;10.23;54.05;98509.38;5114714;27;19920;-54
2023/05/19 02:51:31;;;;;;;;;;;;;;;10.26;53.89;98503.38;5086302;28;19977;-55
2023/05/19 02:54:01;;;;;;;;;;;;;;;10.30;53.99;98509.84;5077242;28;19924;-53
2023/05/19 02:56:29;;;;;;;;;;;;;;;10.25;54.20;98511.84;5090312;28;19947;-54
2023/05/19 02:58:58;;;;;;;;;;;;;;;10.23;54.28;98510.22;5091351;28;19943;-54
2023/05/19 03:01:26;;;;;;;;;;;;;;;10.24;54.27;98508.31;5105852;28;19924;-54
2023/05/19 03:03:54;;;;;;;;;;;;;;;10.20;54.63;98504.53;5100675;28;19920;-55
2023/05/19 03:06:23;;;;;;;;;;;;;;;10.16;54.73;98507.03;5107063;28;19920;-54
2023/05/19 03:08:51;;;;;;;;;;;;;;;10.14;55.07;98501.09;5086253;28;19955;-55
2023/05/19 03:11:18;;;;;;;;;;;;;;;10.22;55.20;98503.13;5099782;28;20415;-54
2023/05/19 03:13:46;;;;;;;;;;;;;;;10.22;55.24;98507.75;5089762;28;19920;-55
2023/05/19 03:16:15;;;;;;;;;;;;;;;10.20;55.13;98505.34;5087869;28;19959;-55
2023/05/19 03:18:44;;;;;;;;;;;;;;;10.19;55.23;98511.06;5085994;28;19927;-54
2023/05/19 03:21:12;;;;;;;;;;;;;;;10.19;55.32;98503.72;5087151;28;19921;-53
2023/05/19 03:23:39;;;;;;;;;;;;;;;10.34;54.40;98510.88;5088520;28;20353;-54
2023/05/19 03:26:08;;;;;;;;;;;;;;;10.29;54.68;98513.66;5104120;27;20319;-54
2023/05/19 03:28:36;;;;;;;;;;;;;;;10.38;54.91;98511.88;5086283;28;19943;-54
2023/05/19 03:31:04;;;;;;;;;;;;;;;10.39;54.52;98518.94;5087749;28;20026;-55
2023/05/19 03:33:38;;;;;;;;;;;;;;;10.36;54.78;98514.09;5089357;28;20468;-56
2023/05/19 03:36:06;;;;;;;;;;;;;;;10.37;55.16;98520.34;5112794;27;19969;-53
2023/05/19 03:38:38;;;;;;;;;;;;;;;10.35;55.39;98517.91;5083701;28;19935;-54
2023/05/19 03:41:06;;;;;;;;;;;;;;;10.35;55.33;98523.34;5091394;28;20044;-53
2023/05/19 03:43:34;;;;;;;;;;;;;;;10.36;55.41;98518.72;5090016;28;20033;-54
2023/05/19 03:46:04;;;;;;;;;;;;;;;10.38;55.52;98521.94;5084199;28;20438;-54
2023/05/19 03:48:48;;;;;;;;;;;;;;;10.47;54.49;98520.97;5087520;28;19963;-56
2023/05/19 03:51:24;;;;;;;;;;;;;;;10.48;54.72;98522.59;5082376;28;19935;-53
2023/05/19 03:53:55;;;;;;;;;;;;;;;10.49;54.46;98524.22;5122466;27;19981;-53
2023/05/19 03:56:26;;;;;;;;;;;;;;;10.51;54.57;98520.41;5090087;28;19950;-53
2023/05/19 03:58:54;;;;;;;;;;;;;;;10.49;55.13;98528.81;5107608;28;19934;-54
2023/05/19 04:01:22;;;;;;;;;;;;;;;10.49;55.45;98534.25;5088374;28;19976;-53
2023/05/19 04:03:52;;;;;;;;;;;;;;;10.51;55.00;98531.28;5087305;28;19939;-54
2023/05/19 04:06:19;;;;;;;;;;;;;;;10.49;55.11;98537.81;5090034;28;19935;-54
2023/05/19 04:08:49;;;;;;;;;;;;;;;10.45;55.42;98544.13;5086957;28;19938;-53
2023/05/19 04:11:18;;;;;;;;;;;;;;;10.47;55.46;98539.19;5086111;28;19982;-55
2023/05/19 04:13:46;;;;;;;;;;;;;;;10.51;55.36;98547.56;5089886;28;19934;-55
2023/05/19 04:16:14;;;;;;;;;;;;;;;10.56;55.25;98534.72;5082071;28;20392;-54
2023/05/19 04:18:44;;;;;;;;;;;;;;;10.58;55.22;98539.84;5110451;27;20268;-55
2023/05/19 04:21:13;;;;;;;;;;;;;;;10.62;55.11;98535.44;5084092;28;19950;-54
2023/05/19 04:23:41;;;;;;;;;;;;;;;10.65;55.10;98540.25;5072361;28;19945;-54
2023/05/19 04:26:08;;;;;;;;;;;;;;;10.63;55.42;98540.56;5073025;28;20375;-54
2023/05/19 04:28:38;;;;;;;;;;;;;;;10.63;55.34;98543.28;5084366;28;19989;-54
2023/05/19 04:31:09;;;;;;;;;;;;;;;10.74;54.98;98542.00;5073171;28;19938;-54
2023/05/19 04:33:37;;;;;;;;;;;;;;;10.75;55.02;98546.34;5063288;28;19938;-54
2023/05/19 04:36:07;;;;;;;;;;;;;;;10.74;55.37;98547.44;5075127;28;20016;-54
2023/05/19 04:38:38;;;;;;;;;;;;;;;10.80;55.08;98540.03;5072843;28;19941;-53
2023/05/19 04:41:09;;;;;;;;;;;;;;;10.83;55.33;98539.44;5079248;28;19941;-55
2023/05/19 04:43:40;;;;;;;;;;;;;;;10.85;55.20;98537.22;5071430;28;20043;-54
2023/05/19 04:46:08;;;;;;;;;;;;;;;10.86;55.27;98543.47;5072824;28;20379;-54
2023/05/19 04:48:39;;;;;;;;;;;;;;;10.88;55.27;98536.63;5069188;28;19984;-54
2023/05/19 04:51:07;;;;;;;;;;;;;;;10.90;55.44;98530.91;5070647;28;19951;-60
2023/05/19 04:53:38;;;;;;;;;;;;;;;10.97;55.30;98539.47;5076756;28;19951;-54
2023/05/19 04:56:13;;;;;;;;;;;;;;;11.00;55.19;98539.69;5072604;28;19950;-54
2023/05/19 04:58:43;;;;;;;;;;;;;;;11.02;55.35;98539.38;5071876;28;19980;-54
2023/05/19 05:01:14;;;;;;;;;;;;;;;11.04;55.06;98536.38;5074873;28;19934;-56
2023/05/19 05:03:43;;;;;;;;;;;;;;;11.11;55.25;98539.50;5075099;28;19988;-54
2023/05/19 05:06:11;;;;;;;;;;;;;;;11.12;55.26;98535.66;5073385;28;20383;-54
2023/05/19 05:08:41;;;;;;;;;;;;;;;11.17;54.97;98541.03;5070069;28;19935;-54
2023/05/19 05:11:09;;;;;;;;;;;;;;;11.20;54.56;98540.44;5100648;28;20383;-54
2023/05/19 05:13:38;;;;;;;;;;;;;;;11.15;54.27;98535.88;5070663;28;19946;-55
2023/05/19 05:16:07;;;;;;;;;;;;;;;11.17;54.45;98538.31;5080526;28;20660;-54
2023/05/19 05:18:37;;;;;;;;;;;;;;;11.18;54.37;98529.03;5068814;28;20074;-54
2023/05/19 05:21:06;;;;;;;;;;;;;;;11.21;54.42;98531.97;5104689;28;20029;-53
2023/05/19 05:23:35;;;;;;;;;;;;;;;11.27;54.00;98532.69;5090341;28;20000;-54
2023/05/19 05:26:07;;;;;;;;;;;;;;;11.32;54.19;98534.50;5099055;28;20025;-54
2023/05/19 05:28:35;;;;;;;;;;;;;;;11.30;53.96;98529.38;5086407;28;19989;-54
2023/05/19 05:31:03;;;;;;;;;;;;;;;11.39;54.31;98530.25;5091244;28;19943;-54
2023/05/19 05:33:31;;;;;;;;;;;;;;;11.39;53.67;98526.75;5089828;28;19931;-54
2023/05/19 05:36:01;;;;;;;;;;;;;;;11.46;53.91;98522.53;5087682;28;20026;-55
2023/05/19 05:38:28;;;;;;;;;;;;;;;11.58;53.54;98523.94;5093205;28;19940;-54
2023/05/19 05:40:56;;;;;;;;;;;;;;;11.79;53.59;98522.41;5096418;28;20275;-56
2023/05/19 05:43:26;;;;;;;;;;;;;;;11.95;52.78;98531.91;5107728;28;19969;-56
2023/05/19 05:45:59;;;;;;;;;;;;;;;12.12;52.04;98525.81;5090985;28;19930;-57
2023/05/19 05:48:27;;;;;;;;;;;;;;;12.25;51.98;98530.44;5086576;28;20110;-57
2023/05/19 05:50:56;;;;;;;;;;;;;;;12.38;51.45;98541.59;5103913;28;19942;-56
2023/05/19 05:53:29;;;;;;;;;;;;;;;12.33;51.24;98521.53;5106598;28;19978;-58
2023/05/19 05:55:58;;;;;;;;;;;;;;;12.34;52.02;98514.16;5109275;28;19946;-57
2023/05/19 05:58:36;;;;;;;;;;;;;;;12.36;51.93;98520.13;5128816;27;19995;-57
2023/05/19 06:01:04;;;;;;;;;;;;;;;12.47;52.19;98526.13;5107687;28;19949;-56
2023/05/19 06:03:32;;;;;;;;;;;;;;;12.74;51.98;98531.47;5105940;28;20037;-57
2023/05/19 06:06:05;;;;;;;;;;;;;;;12.98;50.32;98525.66;5088640;28;20388;-56
2023/05/19 06:08:34;;;;;;;;;;;;;;;13.22;49.71;98528.09;5086745;28;19931;-60
2023/05/19 06:11:07;;;;;;;;;;;;;;;13.29;49.94;98530.38;5110468;27;19957;-59
2023/05/19 06:13:40;;;;;;;;;;;;;;;13.43;48.81;98527.56;5093918;28;19935;-59
2023/05/19 06:16:11;;;;;;;;;;;;;;;13.45;49.01;98534.28;5116965;27;20399;-56
2023/05/19 06:18:43;;;;;;;;;;;;;;;13.43;48.93;98525.63;5081370;28;20371;-56
2023/05/19 06:21:12;;;;;;;;;;;;;;;13.45;49.26;98528.03;5089589;28;19930;-56
2023/05/19 06:23:41;;;;;;;;;;;;;;;13.38;49.67;98528.50;5120976;27;19924;-55
2023/05/19 06:26:10;;;;;;;;;;;;;;;13.32;49.63;98525.09;5121344;27;20042;-56
2023/05/19 06:28:39;;;;;;;;;;;;;;;13.41;49.13;98522.38;5079935;28;19941;-57
2023/05/19 06:31:07;;;;;;;;;;;;;;;13.34;49.87;98525.56;5094144;28;19963;-61
2023/05/19 06:33:53;;;;;;;;;;;;;;;13.30;49.43;98527.31;5093560;28;19950;-57
2023/05/19 06:36:21;;;;;;;;;;;;;;;13.40;49.29;98520.78;5117369;27;19926;-56
2023/05/19 06:38:51;;;;;;;;;;;;;;;13.36;49.86;98528.78;5098097;28;19955;-57
2023/05/19 06:41:20;;;;;;;;;;;;;;;13.39;49.50;98524.63;5088661;28;19955;-57
2023/05/19 06:43:52;;;;;;;;;;;;;;;13.49;48.89;98532.56;5084086;28;19958;-61
2023/05/19 06:46:21;;;;;;;;;;;;;;;13.48;49.32;98528.22;5089078;28;20409;-56
2023/05/19 06:48:51;;;;;;;;;;;;;;;13.52;49.04;98529.16;5084171;28;19954;-57
2023/05/19 06:51:22;;;;;;;;;;;;;;;13.50;49.04;98525.97;5087000;28;19955;-57
2023/05/19 06:53:54;;;;;;;;;;;;;;;13.43;49.01;98531.09;5085919;28;19926;-57
2023/05/19 06:56:23;;;;;;;;;;;;;;;13.50;49.25;98520.50;5091391;28;20487;-56
2023/05/19 06:58:52;;;;;;;;;;;;;;;13.59;48.50;98523.28;5082865;28;19938;-57
2023/05/19 07:01:26;;;;;;;;;;;;;;;13.70;48.88;98521.88;5101728;27;20427;-56
2023/05/19 07:03:56;;;;;;;;;;;;;;;13.81;48.93;98522.38;5087461;28;19920;-57
2023/05/19 07:06:24;;;;;;;;;;;;;;;13.83;48.89;98517.38;5088694;28;19927;-57
2023/05/19 07:08:52;;;;;;;;;;;;;;;13.89;48.53;98511.47;5106902;28;19932;-63
2023/05/19 07:11:20;;;;;;;;;;;;;;;14.02;49.15;98515.19;5088621;28;19920;-57
2023/05/19 07:13:49;;;;;;;;;;;;;;;14.16;48.59;98513.09;5088200;28;19920;-57
2023/05/19 07:16:24;;;;;;;;;;;;;;;14.12;47.46;98509.44;5101361;27;19924;-59
2023/05/19 07:18:52;;;;;;;;;;;;;;;14.19;47.96;98497.22;5099563;28;20369;-57
2023/05/19 07:21:20;;;;;;;;;;;;;;;14.07;47.39;98501.38;5102725;27;19919;-57
2023/05/19 07:23:49;;;;;;;;;;;;;;;14.21;48.06;98503.16;5087762;28;19921;-57
2023/05/19 07:26:17;;;;;;;;;;;;;;;14.47;46.94;98504.00;5085571;28;19966;-58
2023/05/19 07:28:46;;;;;;;;;;;;;;;14.63;46.84;98491.44;5078528;28;20023;-56
2023/05/19 07:31:14;;;;;;;;;;;;;;;14.75;47.17;98496.22;5086703;28;19932;-58
2023/05/19 07:33:43;;;;;;;;;;;;;;;14.92;46.73;98498.16;5093147;28;20276;-56
2023/05/19 07:36:11;;;;;;;;;;;;;;;15.08;46.10;98491.03;5084698;28;19951;-57
2023/05/19 07:38:39;;;;;;;;;;;;;;;15.18;46.60;98493.41;5088750;28;19995;-57
2023/05/19 07:41:07;;;;;;;;;;;;;;;15.25;46.08;98490.16;5079968;28;19966;-58
2023/05/19 07:43:34;;;;;;;;;;;;;;;15.33;44.97;98491.25;5084918;28;19932;-57
2023/05/19 07:46:02;;;;;;;;;;;;;;;15.26;45.00;98486.28;5082077;28;20415;-57
2023/05/19 07:48:31;;;;;;;;;;;;;;;15.23;45.52;98486.94;5072538;28;19920;-57
2023/05/19 07:51:00;;;;;;;;;;;;;;;15.27;46.02;98481.63;5090961;28;20278;-61
2023/05/19 07:53:30;;;;;;;;;;;;;;;15.11;45.53;98476.69;5073476;28;19954;-58
2023/05/19 07:55:57;;;;;;;;;;;;;;;14.89;46.21;98476.91;5079472;28;19965;-56
2023/05/19 07:58:25;;;;;;;;;;;;;;;14.89;46.76;98474.19;5082257;28;20337;-56
2023/05/19 08:00:53;;;;;;;;;;;;;;;15.00;46.67;98480.09;5078006;28;19962;-57
2023/05/19 08:03:22;;;;;;;;;;;;;;;15.25;46.72;98483.91;5081905;28;19920;-58
2023/05/19 08:05:50;;;;;;;;;;;;;;;15.42;45.90;98490.09;5074719;28;19972;-58
2023/05/19 08:08:19;;;;;;;;;;;;;;;15.59;44.93;98482.94;5086871;28;19970;-58
2023/05/19 08:10:47;;;;;;;;;;;;;;;15.91;44.63;98481.47;5069106;28;19971;-58
2023/05/19 08:13:14;;;;;;;;;;;;;;;16.11;44.73;98472.47;5088917;28;19935;-55
2023/05/19 08:15:42;;;;;;;;;;;;;;;16.09;43.74;98484.94;5082608;28;19924;-56
2023/05/19 08:18:10;;;;;;;;;;;;;;;16.00;43.61;98475.94;5087420;28;19969;-58
2023/05/19 08:20:38;;;;;;;;;;;;;;;15.86;43.66;98479.72;5088399;28;20322;-56
2023/05/19 08:23:06;;;;;;;;;;;;;;;15.72;44.38;98476.44;5092930;28;19932;-55
2023/05/19 08:25:35;;;;;;;;;;;;;;;15.63;45.86;98481.16;5102922;28;19920;-56
2023/05/19 08:28:03;;;;;;;;;;;;;;;15.58;45.35;98476.66;5099722;28;19965;-56
2023/05/19 08:30:31;;;;;;;;;;;;;;;15.61;44.42;98473.25;5085058;28;19968;-54
2023/05/19 08:32:59;;;;;;;;;;;;;;;15.68;44.64;98478.25;5081589;28;20265;-56
2023/05/19 08:35:27;;;;;;;;;;;;;;;15.75;45.20;98481.25;5084943;28;19928;-56
2023/05/19 08:37:54;;;;;;;;;;;;;;;15.76;44.60;98479.31;5085722;28;19977;-57
2023/05/19 08:40:22;;;;;;;;;;;;;;;15.83;43.41;98465.91;5082669;28;19924;-60
2023/05/19 08:42:51;;;;;;;;;;;;;;;15.85;43.93;98466.38;5090354;28;20341;-56
2023/05/19 08:45:19;;;;;;;;;;;;;;;15.88;43.79;98463.78;5086327;28;19929;-57
2023/05/19 08:47:47;;;;;;;;;;;;;;;15.81;43.38;98457.22;5082859;28;19920;-56
2023/05/19 08:50:16;;;;;;;;;;;;;;;15.85;44.22;98456.22;5091090;28;19924;-59
2023/05/19 08:52:48;;;;;;;;;;;;;;;15.69;43.47;98456.00;5087625;28;19959;-55
2023/05/19 08:55:26;;;;;;;;;;;;;;;15.65;43.71;98463.25;5089310;28;19927;-56
2023/05/19 08:57:55;;;;;;;;;;;;;;;15.74;44.02;98456.94;5090009;28;20369;-56
2023/05/19 09:00:23;;;;;;;;;;;;;;;15.81;43.90;98454.47;5087121;28;19951;-56
2023/05/19 09:02:51;;;;;;;;;;;;;;;15.82;43.99;98450.59;5093143;28;19920;-57
2023/05/19 09:05:27;;;;;;;;;;;;;;;15.93;43.61;98449.09;5089296;28;19932;-56
2023/05/19 09:07:55;;;;;;;;;;;;;;;16.01;43.24;98453.69;5084242;28;19924;-56
2023/05/19 09:10:23;;;;;;;;;;;;;;;16.20;43.94;98459.50;5112435;27;20349;-56
2023/05/19 09:12:57;;;;;;;;;;;;;;;16.22;43.24;98457.22;5089815;28;19938;-56
2023/05/19 09:15:26;;;;;;;;;;;;;;;16.27;43.39;98458.19;5091636;28;19923;-56
2023/05/19 09:18:03;;;;;;;;;;;;;;;16.30;43.48;98446.53;5093727;28;19920;-56
2023/05/19 09:20:30;;;;;;;;;;;;;;;16.35;43.34;98455.38;5084094;28;19927;-56
2023/05/19 09:22:58;;;;;;;;;;;;;;;16.30;43.15;98462.97;5092888;28;19954;-56
2023/05/19 09:25:26;;;;;;;;;;;;;;;16.24;43.20;98451.41;5091348;28;19923;-56
2023/05/19 09:27:56;;;;;;;;;;;;;;;16.29;43.32;98456.69;5091053;28;19928;-56
2023/05/19 09:30:25;;;;;;;;;;;;;;;16.37;43.61;98455.03;5088483;28;19931;-57
2023/05/19 09:32:53;;;;;;;;;;;;;;;16.44;43.50;98453.34;5094524;28;19920;-56
2023/05/19 09:35:20;;;;;;;;;;;;;;;16.46;44.31;98453.03;5092317;28;19927;-57
2023/05/19 09:37:48;;;;;;;;;;;;;;;16.21;43.58;98447.41;5092529;28;20361;-56
2023/05/19 09:40:16;;;;;;;;;;;;;;;16.22;43.73;98449.00;5093387;28;20411;-55
2023/05/19 09:42:44;;;;;;;;;;;;;;;16.14;43.29;98444.41;5089845;28;19969;-56
2023/05/19 09:45:15;;;;;;;;;;;;;;;16.17;43.15;98448.41;5088391;28;20290;-55
2023/05/19 09:47:43;;;;;;;;;;;;;;;16.32;43.99;98439.56;5085815;28;19920;-56
2023/05/19 09:50:12;;;;;;;;;;;;;;;16.37;42.89;98439.38;5093213;28;19931;-55
2023/05/19 09:52:42;;;;;;;;;;;;;;;16.49;43.04;98435.88;5090414;28;20380;-55
2023/05/19 09:55:11;;;;;;;;;;;;;;;16.49;42.92;98439.41;5094673;28;19981;-55
2023/05/19 09:57:40;;;;;;;;;;;;;;;16.53;42.72;98434.06;5093465;28;19920;-55
2023/05/19 10:00:12;;;;;;;;;;;;;;;16.64;41.99;98435.25;5092826;28;20003;-59
2023/05/19 10:02:44;;;;;;;;;;;;;;;16.53;42.24;98427.78;5092519;28;19974;-57
2023/05/19 10:05:15;;;;;;;;;;;;;;;16.68;41.92;98430.69;5090253;28;20014;-55
2023/05/19 10:07:47;;;;;;;;;;;;;;;16.96;41.93;98422.66;5092936;28;19920;-55
2023/05/19 10:10:15;;;;;;;;;;;;;;;17.15;42.79;98422.13;5088243;28;19973;-56
2023/05/19 10:12:43;;;;;;;;;;;;;;;17.16;40.88;98411.94;5093007;28;20289;-56
2023/05/19 10:15:11;;;;;;;;;;;;;;;16.96;40.59;98421.84;5090975;28;19970;-56
2023/05/19 10:17:39;;;;;;;;;;;;;;;17.03;41.27;98408.34;5092544;28;20327;-58
2023/05/19 10:20:11;;;;;;;;;;;;;;;17.11;41.54;98409.41;5092838;28;20368;-63
2023/05/19 10:22:43;;;;;;;;;;;;;;;17.21;41.26;98398.78;5092949;28;19954;-55
2023/05/19 10:25:13;;;;;;;;;;;;;;;17.51;41.11;98395.78;5086757;28;20048;-56
2023/05/19 10:27:44;;;;;;;;;;;;;;;17.71;40.48;98383.84;5090549;28;19927;-55
2023/05/19 10:30:12;;;;;;;;;;;;;;;17.73;40.34;98386.25;5093892;28;19958;-55
2023/05/19 10:32:41;;;;;;;;;;;;;;;17.61;40.21;98389.00;5087550;28;19957;-56
2023/05/19 10:35:16;;;;;;;;;;;;;;;17.30;40.35;98390.41;5090127;28;19935;-56
2023/05/19 10:37:45;;;;;;;;;;;;;;;17.02;42.33;98379.31;5085003;28;19935;-55
2023/05/19 10:40:18;;;;;;;;;;;;;;;16.95;40.98;98384.56;5093059;28;19950;-55
2023/05/19 10:42:52;;;;;;;;;;;;;;;17.37;41.06;98382.41;5090811;28;19972;-56
2023/05/19 10:45:20;;;;;;;;;;;;;;;17.62;40.57;98374.13;5087886;28;20317;-56
2023/05/19 10:47:50;;;;;;;;;;;;;;;17.93;40.76;98368.81;5087453;28;19991;-55
2023/05/19 10:50:19;;;;;;;;;;;;;;;18.13;38.92;98366.25;5091898;28;20260;-56
2023/05/19 10:52:52;;;;;;;;;;;;;;;18.26;39.27;98360.31;5091962;28;19970;-56
2023/05/19 10:55:41;;;;;;;;;;;;;;;18.48;38.28;98363.66;5088447;28;20277;-57
2023/05/19 10:58:11;;;;;;;;;;;;;;;18.66;38.07;98364.94;5085903;28;19970;-60
2023/05/19 11:00:38;;;;;;;;;;;;;;;18.92;38.76;98374.66;5089258;28;20009;-56
2023/05/19 11:03:13;;;;;;;;;;;;;;;19.11;37.47;98363.72;5111099;28;19935;-56
2023/05/19 11:05:45;;;;;;;;;;;;;;;19.38;37.09;98365.53;5091190;28;19930;-56
2023/05/19 11:08:13;;;;;;;;;;;;;;;19.01;37.50;98364.25;5081736;28;19926;-55
2023/05/19 11:10:43;;;;;;;;;;;;;;;18.69;38.42;98366.19;5087501;28;20407;-56
2023/05/19 11:13:18;;;;;;;;;;;;;;;18.71;38.26;98353.69;5094219;28;20367;-56
2023/05/19 11:15:46;;;;;;;;;;;;;;;18.69;38.03;98349.69;5090706;28;20015;-56
2023/05/19 11:18:15;;;;;;;;;;;;;;;18.74;38.70;98355.72;5092426;28;19961;-56
2023/05/19 11:20:44;;;;;;;;;;;;;;;18.74;37.88;98352.16;5085673;28;19930;-55
2023/05/19 11:23:16;;;;;;;;;;;;;;;18.69;37.92;98353.22;5083135;28;20341;-55
2023/05/19 11:25:46;;;;;;;;;;;;;;;18.51;38.71;98354.69;5093588;28;19954;-55
2023/05/19 11:28:15;;;;;;;;;;;;;;;18.61;37.79;98348.69;5092933;28;19965;-55
2023/05/19 11:30:43;;;;;;;;;;;;;;;18.94;38.14;98353.06;5085774;28;19982;-56
2023/05/19 11:33:13;;;;;;;;;;;;;;;19.17;37.29;98356.78;5094454;28;20389;-55
2023/05/19 11:35:42;;;;;;;;;;;;;;;19.33;37.58;98352.06;5091867;28;19931;-55
2023/05/19 11:38:11;;;;;;;;;;;;;;;19.43;37.42;98347.94;5086093;28;19959;-55
2023/05/19 11:40:39;;;;;;;;;;;;;;;19.56;36.24;98343.13;5088430;28;20010;-57
2023/05/19 11:43:06;;;;;;;;;;;;;;;19.61;36.55;98331.84;5092929;28;19920;-55
2023/05/19 11:45:36;;;;;;;;;;;;;;;19.61;37.56;98338.16;5089743;28;19920;-56
2023/05/19 11:48:05;;;;;;;;;;;;;;;19.64;37.12;98333.88;5087678;28;19931;-55
2023/05/19 11:50:35;;;;;;;;;;;;;;;19.75;37.73;98323.88;5088431;28;19920;-56
2023/05/19 11:53:03;;;;;;;;;;;;;;;19.73;36.26;98326.19;5091010;28;19955;-55
2023/05/19 11:55:33;;;;;;;;;;;;;;;19.63;36.43;98327.56;5108500;28;19924;-56
2023/05/19 11:58:01;;;;;;;;;;;;;;;19.58;36.66;98322.31;5087481;28;20349;-56
2023/05/19 12:00:35;;;;;;;;;;;;;;;19.53;37.00;98310.75;5091405;28;20368;-55
2023/05/19 12:03:04;;;;;;;;;;;;;;;19.55;37.07;98305.72;5091472;28;20361;-56
2023/05/19 12:05:36;;;;;;;;;;;;;;;19.35;36.83;98308.44;5085642;28;19974;-55
2023/05/19 12:08:08;;;;;;;;;;;;;;;19.29;37.30;98314.56;5090077;28;20362;-59
2023/05/19 12:10:38;;;;;;;;;;;;;;;19.29;37.99;98315.38;5090041;28;19920;-62
2023/05/19 12:13:07;;;;;;;;;;;;;;;19.34;36.79;98304.06;5085688;28;20011;-55
2023/05/19 12:15:37;;;;;;;;;;;;;;;19.57;37.19;98312.44;5088953;28;19927;-55
2023/05/19 12:18:06;;;;;;;;;;;;;;;19.57;36.59;98306.13;5091008;28;19920;-57
2023/05/19 12:20:34;;;;;;;;;;;;;;;19.57;36.50;98297.88;5087471;28;19970;-58
2023/05/19 12:23:03;;;;;;;;;;;;;;;19.62;36.73;98294.84;5091584;28;19955;-55
2023/05/19 12:25:31;;;;;;;;;;;;;;;19.73;36.25;98301.38;5086278;28;20308;-56
2023/05/19 12:28:01;;;;;;;;;;;;;;;19.53;35.70;98302.50;5084782;28;19965;-55
2023/05/19 12:30:30;;;;;;;;;;;;;;;19.45;36.53;98307.06;5090533;28;19924;-55
2023/05/19 12:32:58;;;;;;;;;;;;;;;19.45;36.60;98303.53;5088509;28;19924;-55
2023/05/19 12:35:27;;;;;;;;;;;;;;;19.63;37.30;98304.72;5081872;28;19920;-54
2023/05/19 12:37:56;;;;;;;;;;;;;;;19.80;36.25;98292.47;5087781;28;20424;-55
2023/05/19 12:40:25;;;;;;;;;;;;;;;20.02;36.62;98297.22;5088182;28;19924;-54
2023/05/19 12:42:57;;;;;;;;;;;;;;;20.06;36.20;98286.28;5084734;28;20402;-55
2023/05/19 12:45:27;;;;;;;;;;;;;;;20.02;34.90;98288.16;5085691;28;20376;-55
2023/05/19 12:47:55;;;;;;;;;;;;;;;20.07;35.37;98285.13;5086284;28;19931;-55
2023/05/19 12:50:29;;;;;;;;;;;;;;;19.97;35.70;98291.22;5084750;28;19931;-56
2023/05/19 12:52:58;;;;;;;;;;;;;;;20.08;35.07;98292.22;5099944;28;19926;-55
2023/05/19 12:55:26;;;;;;;;;;;;;;;20.13;34.93;98287.22;5082453;28;19921;-56
2023/05/19 12:57:56;;;;;;;;;;;;;;;20.08;35.02;98282.00;5086927;28;19924;-55
2023/05/19 13:00:26;;;;;;;;;;;;;;;20.18;35.24;98280.59;5086066;28;19962;-56